createdAt,value
2024-05-09T00:00:35.748Z,65.99
2024-05-09T00:03:10.346Z,66.17
2024-05-09T00:05:40.093Z,66.53
2024-05-09T00:08:09.099Z,66.96
2024-05-09T00:10:38.274Z,66.78
2024-05-09T00:13:07.069Z,66.90
2024-05-09T00:15:34.694Z,67.30
2024-05-09T00:18:02.380Z,67.65
2024-05-09T00:20:37.357Z,67.74
2024-05-09T00:23:07.771Z,67.50
2024-05-09T00:25:35.041Z,67.92
2024-05-09T00:28:01.950Z,68.14
2024-05-09T00:30:34.117Z,68.00
2024-05-09T00:33:04.521Z,68.75
2024-05-09T00:35:32.011Z,68.50
2024-05-09T00:37:58.810Z,68.91
2024-05-09T00:40:35.549Z,68.50
2024-05-09T00:43:07.060Z,68.62
2024-05-09T00:45:35.118Z,68.38
2024-05-09T00:48:06.749Z,68.27
2024-05-09T00:50:37.445Z,67.93
2024-05-09T00:53:06.692Z,67.80
2024-05-09T00:55:35.318Z,67.56
2024-05-09T00:58:02.998Z,67.49
2024-05-09T01:00:37.788Z,67.89
2024-05-09T01:03:07.303Z,68.11
2024-05-09T01:05:34.804Z,68.02
2024-05-09T01:08:02.300Z,68.36
2024-05-09T01:10:34.320Z,68.08
2024-05-09T01:13:03.599Z,68.11
2024-05-09T01:15:30.256Z,67.63
2024-05-09T01:17:57.795Z,67.79
2024-05-09T01:20:36.440Z,67.66
2024-05-09T01:23:09.006Z,67.64
2024-05-09T01:25:35.935Z,67.94
2024-05-09T01:28:02.535Z,67.85
2024-05-09T01:30:34.662Z,67.96
2024-05-09T01:33:04.506Z,67.99
2024-05-09T01:35:31.836Z,67.83
2024-05-09T01:37:58.685Z,67.88
2024-05-09T01:40:35.394Z,68.01
2024-05-09T01:43:05.131Z,68.10
2024-05-09T01:45:31.782Z,68.00
2024-05-09T01:47:58.671Z,68.00
2024-05-09T01:50:36.985Z,68.24
2024-05-09T01:53:08.216Z,67.75
2024-05-09T01:55:34.883Z,67.82
2024-05-09T01:58:01.502Z,67.79
2024-05-09T02:00:37.847Z,68.19
2024-05-09T02:03:15.434Z,68.28
2024-05-09T02:05:49.405Z,68.15
2024-05-09T02:08:20.944Z,68.01
2024-05-09T02:10:49.877Z,67.96
2024-05-09T02:13:17.155Z,68.08
2024-05-09T02:15:44.365Z,68.18
2024-05-09T02:18:11.695Z,68.14
2024-05-09T02:20:40.572Z,68.30
2024-05-09T02:23:08.622Z,67.81
2024-05-09T02:25:35.531Z,68.10
2024-05-09T02:28:02.320Z,68.50
2024-05-09T02:30:38.247Z,68.06
2024-05-09T02:33:09.951Z,68.30
2024-05-09T02:35:38.443Z,68.05
2024-05-09T02:38:05.221Z,68.66
2024-05-09T02:40:37.099Z,67.67
2024-05-09T02:43:06.937Z,68.15
2024-05-09T02:45:33.748Z,67.97
2024-05-09T02:48:00.989Z,68.14
2024-05-09T02:50:34.605Z,68.24
2024-05-09T02:53:06.130Z,68.65
2024-05-09T02:55:33.178Z,68.24
2024-05-09T02:57:59.880Z,68.61
2024-05-09T03:00:34.928Z,68.74
2024-05-09T03:03:07.629Z,68.75
2024-05-09T03:05:35.186Z,68.80
2024-05-09T03:08:02.031Z,68.69
2024-05-09T03:10:32.397Z,69.06
2024-05-09T03:13:06.423Z,69.49
2024-05-09T03:15:33.279Z,69.62
2024-05-09T03:18:00.927Z,69.16
2024-05-09T03:20:33.388Z,68.98
2024-05-09T03:23:02.291Z,68.75
2024-05-09T03:25:29.058Z,68.99
2024-05-09T03:27:55.691Z,69.25
2024-05-09T03:30:35.798Z,68.95
2024-05-09T03:33:15.259Z,69.52
2024-05-09T03:35:46.488Z,69.61
2024-05-09T03:38:13.528Z,69.66
2024-05-09T03:40:50.702Z,68.95
2024-05-09T03:43:18.166Z,69.56
2024-05-09T03:45:45.704Z,70.05
2024-05-09T03:48:13.010Z,69.89
2024-05-09T03:50:39.848Z,71.67
2024-05-09T03:53:10.386Z,71.68
2024-05-09T03:55:37.048Z,70.92
2024-05-09T03:58:04.957Z,71.09
2024-05-09T04:00:37.629Z,70.33
2024-05-09T04:03:09.037Z,70.62
2024-05-09T04:05:39.574Z,70.50
2024-05-09T04:08:06.927Z,70.76
2024-05-09T04:10:34.964Z,70.75
2024-05-09T04:13:03.170Z,71.42
2024-05-09T04:15:30.245Z,70.99
2024-05-09T04:17:57.051Z,70.97
2024-05-09T04:20:33.463Z,70.69
2024-05-09T04:23:06.359Z,70.57
2024-05-09T04:25:33.438Z,70.49
2024-05-09T04:28:00.194Z,71.39
2024-05-09T04:30:36.023Z,71.15
2024-05-09T04:33:06.938Z,70.72
2024-05-09T04:35:35.032Z,70.72
2024-05-09T04:38:02.015Z,70.72
2024-05-09T04:40:33.764Z,70.74
2024-05-09T04:43:04.219Z,70.60
2024-05-09T04:45:31.118Z,70.43
2024-05-09T04:47:58.232Z,70.78
2024-05-09T04:50:35.202Z,71.16
2024-05-09T04:53:05.572Z,70.82
2024-05-09T04:55:32.960Z,70.81
2024-05-09T04:57:59.645Z,70.94
2024-05-09T05:00:34.449Z,70.88
2024-05-09T05:03:07.042Z,70.49
2024-05-09T05:05:37.706Z,71.41
2024-05-09T05:08:05.085Z,71.63
2024-05-09T05:10:36.092Z,71.21
2024-05-09T05:13:18.285Z,72.90
2024-05-09T05:15:50.102Z,71.69
2024-05-09T05:18:17.322Z,72.13
2024-05-09T05:20:44.337Z,71.82
2024-05-09T05:23:13.542Z,71.73
2024-05-09T05:25:43.712Z,71.46
2024-05-09T05:28:10.790Z,71.37
2024-05-09T05:30:38.468Z,71.25
2024-05-09T05:33:06.949Z,72.21
2024-05-09T05:35:34.416Z,73.08
2024-05-09T05:38:01.544Z,72.54
2024-05-09T05:40:35.781Z,71.77
2024-05-09T05:43:05.347Z,72.24
2024-05-09T05:45:31.951Z,71.99
2024-05-09T05:47:59.947Z,72.43
2024-05-09T05:50:32.661Z,72.21
2024-05-09T05:53:03.399Z,71.61
2024-05-09T05:55:30.115Z,71.25
2024-05-09T05:57:56.830Z,71.00
2024-05-09T06:00:29.946Z,71.53
2024-05-09T06:03:04.835Z,71.22
2024-05-09T06:05:32.254Z,71.59
2024-05-09T06:07:59.324Z,71.75
2024-05-09T06:10:30.592Z,71.73
2024-05-09T06:13:05.023Z,71.73
2024-05-09T06:15:31.673Z,71.38
2024-05-09T06:17:58.605Z,71.87
2024-05-09T06:20:34.600Z,71.88
2024-05-09T06:23:04.326Z,72.33
2024-05-09T06:25:31.120Z,72.19
2024-05-09T06:27:57.755Z,72.09
2024-05-09T06:30:30.848Z,71.93
2024-05-09T06:33:05.811Z,71.54
2024-05-09T06:35:33.379Z,71.11
2024-05-09T06:38:00.362Z,70.96
2024-05-09T06:40:36.122Z,71.06
2024-05-09T06:43:05.840Z,70.83
2024-05-09T06:45:32.615Z,71.20
2024-05-09T06:47:59.347Z,71.04
2024-05-09T06:50:28.650Z,71.79
2024-05-09T06:53:02.423Z,70.92
2024-05-09T06:55:29.230Z,70.85
2024-05-09T06:57:55.963Z,71.02
2024-05-09T07:00:30.297Z,71.21
2024-05-09T07:03:12.763Z,70.77
2024-05-09T07:05:41.011Z,70.52
2024-05-09T07:08:08.774Z,71.37
2024-05-09T07:10:36.855Z,70.97
2024-05-09T07:13:11.248Z,71.06
2024-05-09T07:15:38.239Z,70.66
2024-05-09T07:18:13.860Z,70.45
2024-05-09T07:20:41.337Z,70.76
2024-05-09T07:23:12.396Z,70.41
2024-05-09T07:25:40.246Z,70.41
2024-05-09T07:28:12.220Z,71.15
2024-05-09T07:30:38.800Z,70.94
2024-05-09T07:33:05.896Z,70.47
2024-05-09T07:35:33.039Z,69.91
2024-05-09T07:38:00.126Z,69.98
2024-05-09T07:40:33.389Z,69.71
2024-05-09T07:43:04.367Z,69.46
2024-05-09T07:45:47.899Z,69.89
2024-05-09T07:53:39.202Z,69.62
2024-05-09T07:56:10.162Z,69.77
2024-05-09T07:58:38.629Z,69.68
2024-05-09T08:01:05.546Z,70.20
2024-05-09T08:03:33.979Z,69.63
2024-05-09T08:06:01.121Z,68.61
2024-05-09T08:08:27.720Z,69.25
2024-05-09T08:10:54.398Z,69.64
2024-05-09T08:13:21.234Z,69.56
2024-05-09T08:15:48.653Z,70.01
2024-05-09T08:18:15.559Z,69.87
2024-05-09T08:20:42.493Z,69.50
2024-05-09T08:23:10.891Z,69.13
2024-05-09T08:25:38.597Z,69.49
2024-05-09T08:28:05.655Z,69.90
2024-05-09T08:30:36.900Z,69.89
2024-05-09T08:33:06.614Z,69.63
2024-05-09T08:35:34.454Z,69.91
2024-05-09T08:38:06.166Z,69.76
2024-05-09T08:40:36.200Z,69.43
2024-05-09T08:43:09.030Z,68.99
2024-05-09T08:45:38.806Z,69.71
2024-05-09T08:48:08.223Z,69.67
2024-05-09T08:50:39.415Z,69.92
2024-05-09T08:53:07.616Z,69.87
2024-05-09T08:55:37.359Z,69.03
2024-05-09T08:58:07.229Z,68.82
2024-05-09T09:00:37.226Z,68.84
2024-05-09T09:03:09.098Z,68.88
2024-05-09T09:05:38.662Z,68.45
2024-05-09T09:08:08.162Z,67.25
2024-05-09T09:10:35.744Z,66.79
2024-05-09T09:13:09.419Z,66.86
2024-05-09T09:15:47.143Z,66.79
2024-05-09T09:18:15.740Z,66.38
2024-05-09T09:20:43.315Z,66.21
2024-05-09T09:23:10.081Z,66.23
2024-05-09T09:25:41.010Z,65.59
2024-05-09T09:28:08.605Z,66.12
2024-05-09T09:30:42.437Z,65.89
2024-05-09T09:33:10.160Z,65.89
2024-05-09T09:35:39.699Z,65.28
2024-05-09T09:38:07.721Z,65.87
2024-05-09T09:40:40.743Z,65.74
2024-05-09T09:43:21.577Z,65.31
2024-05-09T09:45:50.667Z,65.22
2024-05-09T09:48:19.529Z,64.29
2024-05-09T09:50:47.511Z,63.75
2024-05-09T09:53:14.263Z,63.63
2024-05-09T09:55:41.871Z,63.41
2024-05-09T09:58:13.203Z,62.63
2024-05-09T10:00:41.253Z,61.90
2024-05-09T10:03:08.147Z,62.01
2024-05-09T10:05:35.247Z,62.31
2024-05-09T10:08:07.428Z,62.52
2024-05-09T10:10:35.301Z,62.07
2024-05-09T10:13:08.799Z,61.94
2024-05-09T10:15:46.597Z,61.18
2024-05-09T10:18:14.366Z,61.09
2024-05-09T10:20:42.447Z,60.75
2024-05-09T10:23:28.317Z,60.04
2024-05-09T10:25:56.833Z,60.11
2024-05-09T10:28:34.000Z,59.98
2024-05-09T10:31:11.705Z,59.56
2024-05-09T10:33:51.582Z,59.38
2024-05-09T10:36:23.599Z,59.66
2024-05-09T10:38:51.263Z,59.35
2024-05-09T10:41:18.776Z,58.66
2024-05-09T10:43:45.501Z,58.67
2024-05-09T10:46:12.535Z,59.48
2024-05-09T10:48:42.726Z,60.61
2024-05-09T10:51:09.966Z,59.69
2024-05-09T10:53:43.681Z,60.33
2024-05-09T10:56:12.962Z,60.50
2024-05-09T10:58:39.597Z,59.52
2024-05-09T11:01:07.495Z,58.43
2024-05-09T11:03:35.329Z,57.95
2024-05-09T11:06:02.523Z,57.99
2024-05-09T11:08:31.740Z,59.63
2024-05-09T11:10:59.614Z,59.68
2024-05-09T11:13:34.410Z,59.73
2024-05-09T11:16:03.323Z,58.91
2024-05-09T11:18:35.481Z,57.92
2024-05-09T11:21:13.001Z,58.73
2024-05-09T11:23:40.359Z,58.24
2024-05-09T11:26:07.068Z,58.30
2024-05-09T11:28:33.672Z,57.20
2024-05-09T11:31:10.414Z,55.28
2024-05-09T11:33:43.016Z,54.87
2024-05-09T11:36:10.538Z,54.84
2024-05-09T11:38:37.134Z,55.59
2024-05-09T11:41:05.100Z,54.59
2024-05-09T11:43:32.246Z,54.86
2024-05-09T11:45:59.722Z,53.91
2024-05-09T11:48:26.912Z,53.41
2024-05-09T11:50:54.614Z,53.06
2024-05-09T11:53:21.230Z,52.87
2024-05-09T11:55:47.857Z,53.42
2024-05-09T11:58:17.490Z,53.86
2024-05-09T12:00:45.049Z,54.65
2024-05-09T12:03:11.782Z,54.26
2024-05-09T12:05:38.624Z,54.55
2024-05-09T12:08:06.214Z,53.74
2024-05-09T12:10:35.502Z,53.47
2024-05-09T12:13:05.508Z,52.12
2024-05-09T12:15:35.800Z,51.26
2024-05-09T12:18:04.097Z,51.43
2024-05-09T12:20:36.833Z,49.84
2024-05-09T12:23:06.419Z,50.30
2024-05-09T12:25:33.198Z,50.58
2024-05-09T12:28:00.204Z,51.28
2024-05-09T12:30:35.503Z,50.79
2024-05-09T12:33:07.076Z,51.31
2024-05-09T12:35:33.759Z,51.38
2024-05-09T12:38:00.474Z,50.55
2024-05-09T12:40:35.361Z,49.53
2024-05-09T12:43:05.898Z,49.95
2024-05-09T12:45:32.722Z,49.74
2024-05-09T12:47:59.673Z,49.87
2024-05-09T12:50:32.364Z,49.69
2024-05-09T12:53:01.117Z,50.22
2024-05-09T12:55:28.605Z,48.83
2024-05-09T12:57:58.450Z,48.80
2024-05-09T13:00:31.456Z,49.42
2024-05-09T13:03:01.147Z,48.96
2024-05-09T13:05:28.496Z,49.32
2024-05-09T13:07:56.702Z,49.24
2024-05-09T13:10:30.813Z,48.31
2024-05-09T13:12:59.818Z,46.65
2024-05-09T13:15:27.172Z,46.98
2024-05-09T13:17:55.832Z,47.77
2024-05-09T13:20:31.259Z,48.89
2024-05-09T13:23:01.894Z,48.47
2024-05-09T13:25:28.547Z,47.05
2024-05-09T13:27:55.867Z,47.47
2024-05-09T13:30:29.712Z,47.61
2024-05-09T13:33:05.533Z,46.69
2024-05-09T13:35:34.237Z,46.95
2024-05-09T13:38:01.863Z,47.35
2024-05-09T13:40:33.615Z,46.71
2024-05-09T13:43:03.669Z,46.45
2024-05-09T13:45:30.520Z,46.61
2024-05-09T13:47:57.527Z,45.98
2024-05-09T13:50:33.054Z,46.67
2024-05-09T13:53:02.701Z,47.42
2024-05-09T13:55:29.302Z,46.98
2024-05-09T13:57:56.297Z,46.05
2024-05-09T14:00:37.382Z,46.42
2024-05-09T14:03:10.055Z,45.52
2024-05-09T14:05:37.029Z,45.62
2024-05-09T14:08:04.116Z,44.81
2024-05-09T14:10:32.141Z,44.09
2024-05-09T14:13:00.541Z,43.64
2024-05-09T14:15:27.617Z,43.81
2024-05-09T14:17:55.212Z,43.98
2024-05-09T14:20:30.147Z,43.80
2024-05-09T14:22:59.259Z,43.65
2024-05-09T14:25:28.196Z,43.20
2024-05-09T14:27:55.116Z,43.54
2024-05-09T14:30:30.478Z,43.77
2024-05-09T14:33:03.599Z,43.64
2024-05-09T14:35:30.358Z,44.32
2024-05-09T14:37:57.112Z,45.41
2024-05-09T14:42:53.262Z,44.53
2024-05-09T14:45:19.927Z,44.36
2024-05-09T14:47:46.810Z,43.93
2024-05-09T14:50:19.638Z,44.36
2024-05-09T14:52:54.228Z,43.44
2024-05-09T14:55:20.929Z,43.05
2024-05-09T14:57:47.698Z,42.75
2024-05-09T15:00:21.363Z,42.71
2024-05-09T15:02:53.138Z,41.30
2024-05-09T15:05:19.898Z,40.69
2024-05-09T15:07:46.641Z,40.19
2024-05-09T15:10:20.411Z,40.34
2024-05-09T15:12:50.628Z,40.56
2024-05-09T15:15:17.896Z,41.09
2024-05-09T15:17:44.967Z,41.68
2024-05-09T15:20:17.148Z,41.44
2024-05-09T15:22:46.941Z,41.79
2024-05-09T15:25:13.860Z,41.59
2024-05-09T15:27:40.623Z,41.94
2024-05-09T15:30:10.721Z,42.27
2024-05-09T15:32:37.766Z,41.88
2024-05-09T15:35:05.469Z,42.24
2024-05-09T15:37:32.371Z,42.19
2024-05-09T15:39:59.118Z,42.13
2024-05-09T15:42:25.738Z,42.62
2024-05-09T15:44:53.042Z,42.17
2024-05-09T15:47:20.280Z,41.87
2024-05-09T15:49:47.724Z,42.30
2024-05-09T15:52:17.762Z,42.24
2024-05-09T15:54:44.495Z,42.75
2024-05-09T15:57:11.947Z,42.80
2024-05-09T15:59:38.546Z,43.67
2024-05-09T16:02:05.783Z,43.18
2024-05-09T16:04:32.562Z,42.50
2024-05-09T16:06:59.245Z,43.65
2024-05-09T16:09:26.085Z,44.04
2024-05-09T16:11:52.726Z,43.17
2024-05-09T16:14:19.345Z,43.37
2024-05-09T16:16:46.363Z,43.68
2024-05-09T16:19:13.305Z,44.54
2024-05-09T16:21:40.066Z,44.56
2024-05-09T16:24:06.693Z,43.37
2024-05-09T16:26:33.334Z,42.01
2024-05-09T16:28:59.973Z,41.23
2024-05-09T16:31:26.717Z,40.79
2024-05-09T16:33:53.804Z,40.27
2024-05-09T16:36:20.790Z,40.41
2024-05-09T16:38:47.415Z,41.19
2024-05-09T16:41:15.422Z,40.66
2024-05-09T16:43:42.104Z,40.87
2024-05-09T16:46:08.959Z,40.42
2024-05-09T16:48:37.102Z,39.62
2024-05-09T16:51:03.845Z,39.76
2024-05-09T16:53:30.484Z,38.59
2024-05-09T16:55:57.173Z,38.61
2024-05-09T16:58:24.744Z,39.02
2024-05-09T17:00:51.641Z,38.31
2024-05-09T17:03:18.464Z,37.88
2024-05-09T17:05:48.480Z,37.26
2024-05-09T17:08:18.000Z,37.52
2024-05-09T17:10:51.318Z,38.61
2024-05-09T17:13:19.209Z,38.39
2024-05-09T17:15:46.836Z,39.31
2024-05-09T17:18:13.986Z,39.32
2024-05-09T17:20:40.583Z,39.93
2024-05-09T17:23:13.685Z,40.42
2024-05-09T17:25:41.323Z,40.03
2024-05-09T17:28:09.209Z,40.27
2024-05-09T17:30:38.424Z,40.66
2024-05-09T17:33:08.430Z,41.27
2024-05-09T17:35:36.482Z,41.62
2024-05-09T17:38:04.120Z,41.52
2024-05-09T17:40:34.642Z,41.03
2024-05-09T17:43:04.769Z,41.81
2024-05-09T17:45:32.275Z,41.36
2024-05-09T17:47:59.639Z,42.26
2024-05-09T17:50:31.907Z,42.65
2024-05-09T17:53:02.915Z,42.98
2024-05-09T17:55:29.790Z,42.64
2024-05-09T17:57:56.808Z,43.45
2024-05-09T18:00:33.380Z,43.33
2024-05-09T18:03:05.873Z,43.10
2024-05-09T18:05:32.960Z,42.64
2024-05-09T18:07:59.877Z,43.78
2024-05-09T18:10:33.693Z,43.42
2024-05-09T18:13:05.147Z,43.72
2024-05-09T18:15:31.984Z,43.62
2024-05-09T18:17:58.748Z,43.51
2024-05-09T18:20:36.075Z,43.34
2024-05-09T18:23:08.306Z,44.02
2024-05-09T18:25:35.055Z,44.51
2024-05-09T18:28:03.053Z,44.51
2024-05-09T18:30:34.773Z,44.66
2024-05-09T18:33:04.748Z,44.15
2024-05-09T18:35:32.398Z,44.86
2024-05-09T18:37:59.092Z,45.05
2024-05-09T18:40:32.760Z,44.91
2024-05-09T18:43:03.509Z,45.54
2024-05-09T18:45:30.524Z,45.72
2024-05-09T18:47:57.309Z,45.70
2024-05-09T18:50:32.328Z,46.04
2024-05-09T18:53:05.961Z,45.83
2024-05-09T18:55:32.854Z,45.99
2024-05-09T18:57:59.583Z,45.83
2024-05-09T19:00:33.615Z,46.23
2024-05-09T19:03:05.598Z,45.96
2024-05-09T19:05:33.304Z,46.00
2024-05-09T19:08:00.271Z,45.28
2024-05-09T19:10:33.680Z,45.75
2024-05-09T19:13:04.309Z,45.69
2024-05-09T19:15:34.446Z,45.76
2024-05-09T19:18:01.378Z,46.58
2024-05-09T19:20:31.967Z,47.11
2024-05-09T19:23:01.305Z,46.81
2024-05-09T19:25:27.867Z,46.11
2024-05-09T19:27:54.521Z,46.92
2024-05-09T19:30:29.778Z,46.78
2024-05-09T19:33:04.759Z,46.99
2024-05-09T19:35:31.754Z,46.44
2024-05-09T19:37:58.505Z,46.76
2024-05-09T19:40:31.249Z,47.71
2024-05-09T19:43:00.362Z,47.78
2024-05-09T19:45:26.991Z,48.08
2024-05-09T19:47:53.794Z,48.01
2024-05-09T19:50:27.114Z,48.38
2024-05-09T19:53:03.023Z,47.71
2024-05-09T19:55:29.657Z,47.53
2024-05-09T19:57:56.372Z,47.95
2024-05-09T20:00:32.288Z,48.73
2024-05-09T20:03:02.344Z,49.20
2024-05-09T20:05:31.078Z,49.24
2024-05-09T20:07:58.118Z,49.83
2024-05-09T20:10:31.064Z,50.28
2024-05-09T20:12:59.536Z,50.60
2024-05-09T20:15:26.292Z,50.12
2024-05-09T20:17:53.648Z,49.91
2024-05-09T20:20:28.651Z,50.88
2024-05-09T20:23:03.300Z,51.07
2024-05-09T20:25:29.965Z,51.19
2024-05-09T20:27:56.700Z,50.81
2024-05-09T20:30:30.568Z,51.09
2024-05-09T20:32:59.397Z,51.38
2024-05-09T20:35:26.609Z,51.02
2024-05-09T20:37:53.211Z,51.15
2024-05-09T20:40:28.246Z,51.18
2024-05-09T20:42:59.194Z,51.41
2024-05-09T20:45:26.227Z,51.40
2024-05-09T20:47:53.141Z,51.41
2024-05-09T20:50:28.427Z,52.28
2024-05-09T20:53:02.981Z,51.58
2024-05-09T20:55:29.848Z,51.84
2024-05-09T20:57:56.872Z,51.64
2024-05-09T21:00:30.260Z,51.66
2024-05-09T21:03:06.307Z,51.96
2024-05-09T21:05:33.977Z,51.82
2024-05-09T21:08:00.880Z,52.26
2024-05-09T21:10:32.090Z,52.36
2024-05-09T21:13:00.243Z,52.44
2024-05-09T21:15:27.038Z,52.29
2024-05-09T21:17:53.652Z,52.55
2024-05-09T21:20:24.155Z,52.29
2024-05-09T21:22:57.459Z,52.18
2024-05-09T21:25:24.180Z,52.36
2024-05-09T21:27:50.871Z,52.70
2024-05-09T21:30:26.780Z,53.19
2024-05-09T21:32:59.357Z,52.64
2024-05-09T21:35:26.101Z,53.04
2024-05-09T21:37:52.651Z,52.65
2024-05-09T21:40:27.243Z,52.71
2024-05-09T21:43:00.951Z,53.27
2024-05-09T21:45:27.707Z,52.92
2024-05-09T21:47:54.693Z,53.44
2024-05-09T21:50:28.023Z,53.65
2024-05-09T21:52:59.164Z,54.26
2024-05-09T21:55:25.799Z,53.84
2024-05-09T21:57:52.426Z,53.64
2024-05-09T22:00:28.791Z,53.49
2024-05-09T22:03:02.407Z,54.45
2024-05-09T22:05:29.214Z,53.75
2024-05-09T22:07:56.422Z,53.97
2024-05-09T22:10:27.135Z,54.11
2024-05-09T22:13:00.032Z,54.36
2024-05-09T22:15:27.051Z,54.46
2024-05-09T22:17:53.924Z,54.15
2024-05-09T22:20:28.793Z,54.25
2024-05-09T22:23:02.610Z,54.67
2024-05-09T22:25:30.988Z,54.69
2024-05-09T22:27:58.433Z,54.26
2024-05-09T22:30:33.829Z,55.17
2024-05-09T22:33:05.178Z,55.40
2024-05-09T22:35:32.151Z,55.70
2024-05-09T22:37:58.919Z,55.57
2024-05-09T22:40:37.882Z,56.04
2024-05-09T22:43:12.599Z,56.30
2024-05-09T22:45:39.494Z,56.55
2024-05-09T22:48:07.518Z,56.52
2024-05-09T22:50:34.313Z,56.70
2024-05-09T22:53:01.200Z,56.38
2024-05-09T22:55:27.951Z,57.21
2024-05-09T22:57:54.728Z,57.17
2024-05-09T23:00:29.336Z,56.93
2024-05-09T23:03:02.424Z,56.78
2024-05-09T23:05:29.545Z,56.75
2024-05-09T23:07:56.457Z,57.09
2024-05-09T23:10:31.052Z,57.12
2024-05-09T23:13:02.357Z,57.30
2024-05-09T23:15:29.146Z,57.42
2024-05-09T23:17:56.057Z,57.65
2024-05-09T23:20:33.223Z,57.36
2024-05-09T23:23:05.271Z,57.39
2024-05-09T23:25:31.918Z,57.30
2024-05-09T23:27:58.677Z,57.70
2024-05-09T23:32:55.070Z,57.55
2024-05-09T23:35:21.697Z,57.49
2024-05-09T23:37:48.297Z,57.72
2024-05-09T23:40:18.767Z,57.79
2024-05-09T23:42:47.010Z,57.26
2024-05-09T23:45:13.698Z,56.75
2024-05-09T23:47:40.436Z,56.75
2024-05-09T23:50:13.801Z,56.53
2024-05-09T23:52:43.187Z,57.22
2024-05-09T23:55:10.314Z,57.55
2024-05-09T23:57:37.017Z,58.58
